Time;durP1;ratioP1;P1;durP2;ratioP2;P2;SDS_P1;SDS_P2;PMS_P1;PMS_P2;Temp;Humidity;BMP_temperature;BMP_pressure;BME280_temperature;BME280_humidity;BME280_pressure;Samples;Min_cycle;Max_cycle;Signal;HPM_P1;HPM_P2
2023/12/04 00:01:45;;;;;;;;;;;;;;;18.33;30.10;95791.00;10495286;28;2967;-49
2023/12/04 00:06:45;;;;;;;;;;;;;;;18.29;31.42;95784.69;10488411;28;2789;-48
2023/12/04 00:11:45;;;;;;;;;;;;;;;18.28;30.33;95787.56;10495718;28;2860;-48
2023/12/04 00:16:46;;;;;;;;;;;;;;;18.26;30.57;95782.56;10497332;28;2800;-46
2023/12/04 00:21:46;;;;;;;;;;;;;;;18.22;30.10;95771.00;10499733;28;2878;-49
2023/12/04 00:26:46;;;;;;;;;;;;;;;18.21;30.28;95766.03;10502025;28;2968;-46
2023/12/04 00:31:46;;;;;;;;;;;;;;;18.18;30.42;95761.28;10503063;28;2854;-45
2023/12/04 00:36:47;;;;;;;;;;;;;;;18.15;30.43;95752.09;10505107;28;2794;-48
2023/12/04 00:41:47;;;;;;;;;;;;;;;18.14;30.56;95754.97;10507404;28;2826;-45
2023/12/04 00:46:47;;;;;;;;;;;;;;;18.10;30.56;95756.53;10501933;28;4700;-45
2023/12/04 00:51:47;;;;;;;;;;;;;;;18.07;30.60;95757.06;10511003;28;2843;-45
2023/12/04 00:56:48;;;;;;;;;;;;;;;18.05;30.63;95753.91;10507565;28;2822;-46
2023/12/04 01:01:48;;;;;;;;;;;;;;;18.02;30.81;95747.34;10500971;28;3250;-48
2023/12/04 01:06:48;;;;;;;;;;;;;;;18.01;30.64;95744.97;10500880;28;2789;-50
2023/12/04 01:11:49;;;;;;;;;;;;;;;17.99;31.00;95739.97;10527856;27;2862;-46
2023/12/04 01:16:49;;;;;;;;;;;;;;;17.96;30.89;95730.00;10492399;28;2881;-47
2023/12/04 01:21:49;;;;;;;;;;;;;;;17.96;30.77;95737.06;10498904;28;2881;-47
2023/12/04 01:26:49;;;;;;;;;;;;;;;17.94;30.89;95741.78;10499633;28;2895;-47
2023/12/04 01:31:50;;;;;;;;;;;;;;;17.92;31.05;95725.53;10496729;28;2857;-45
2023/12/04 01:36:52;;;;;;;;;;;;;;;17.88;30.80;95720.81;10494655;28;2901;-45
2023/12/04 01:41:53;;;;;;;;;;;;;;;17.87;30.91;95721.84;10499297;28;3031;-45
2023/12/04 01:46:53;;;;;;;;;;;;;;;17.84;30.77;95711.06;10496014;28;4672;-45
2023/12/04 01:51:53;;;;;;;;;;;;;;;17.83;30.77;95704.25;10503693;28;2914;-45
2023/12/04 01:56:54;;;;;;;;;;;;;;;17.80;30.88;95695.06;10501141;28;2777;-45
2023/12/04 02:01:55;;;;;;;;;;;;;;;17.79;31.08;95693.50;10487979;28;2870;-45
2023/12/04 02:06:55;;;;;;;;;;;;;;;17.77;30.65;95679.84;10512105;27;2904;-49
2023/12/04 02:11:55;;;;;;;;;;;;;;;17.76;30.81;95661.75;10498800;28;2973;-45
2023/12/04 02:16:56;;;;;;;;;;;;;;;17.74;30.45;95645.50;10496992;28;2828;-45
2023/12/04 02:21:56;;;;;;;;;;;;;;;17.71;30.53;95628.44;10498631;28;2844;-46
2023/12/04 02:26:59;;;;;;;;;;;;;;;17.70;30.54;95632.09;10502858;28;2854;-46
2023/12/04 02:31:59;;;;;;;;;;;;;;;17.68;30.48;95634.19;10497471;28;2941;-45
2023/12/04 02:37:00;;;;;;;;;;;;;;;17.66;30.49;95630.28;10508371;28;2864;-51
2023/12/04 02:42:00;;;;;;;;;;;;;;;17.64;30.29;95633.13;10493266;28;2817;-45
2023/12/04 02:47:00;;;;;;;;;;;;;;;17.62;30.43;95624.75;10491134;28;4596;-45
2023/12/04 02:52:00;;;;;;;;;;;;;;;17.61;30.40;95623.19;10496367;28;2977;-46
2023/12/04 02:57:01;;;;;;;;;;;;;;;17.60;30.40;95624.22;10498600;28;2874;-48
2023/12/04 03:02:01;;;;;;;;;;;;;;;17.57;30.29;95618.69;10494341;28;2856;-50
2023/12/04 03:07:01;;;;;;;;;;;;;;;17.56;30.28;95615.28;10499494;28;2911;-45
2023/12/04 03:12:02;;;;;;;;;;;;;;;17.53;30.27;95594.84;10492022;28;3188;-44
2023/12/04 03:17:02;;;;;;;;;;;;;;;17.51;30.10;95581.22;10492576;28;2936;-49
2023/12/04 03:22:02;;;;;;;;;;;;;;;17.49;30.08;95578.06;10499144;28;2762;-46
2023/12/04 03:27:02;;;;;;;;;;;;;;;17.48;30.36;95581.69;10501530;28;2879;-45
2023/12/04 03:32:03;;;;;;;;;;;;;;;17.47;30.06;95569.66;10491120;28;2867;-47
2023/12/04 03:37:03;;;;;;;;;;;;;;;17.45;30.10;95566.50;10489764;28;3201;-47
2023/12/04 03:42:03;;;;;;;;;;;;;;;17.45;30.41;95561.25;10494405;28;2883;-44
2023/12/04 03:47:04;;;;;;;;;;;;;;;17.44;30.28;95570.16;10488814;28;4813;-45
2023/12/04 03:52:04;;;;;;;;;;;;;;;17.44;30.32;95567.53;10498681;28;2844;-45
2023/12/04 03:57:04;;;;;;;;;;;;;;;17.45;31.19;95557.84;10499164;28;2859;-45
2023/12/04 04:02:05;;;;;;;;;;;;;;;17.44;32.04;95553.63;10495423;28;2851;-49
2023/12/04 04:07:05;;;;;;;;;;;;;;;17.45;32.28;95549.97;10499485;28;2929;-47
2023/12/04 04:12:06;;;;;;;;;;;;;;;17.50;32.02;95548.19;10505514;28;2958;-47
2023/12/04 04:17:06;;;;;;;;;;;;;;;17.48;32.03;95538.97;10497222;28;2885;-48
2023/12/04 04:22:07;;;;;;;;;;;;;;;17.50;32.77;95531.66;10507759;28;2877;-45
2023/12/04 04:27:07;;;;;;;;;;;;;;;17.52;31.97;95521.72;10528198;27;3172;-45
2023/12/04 04:32:07;;;;;;;;;;;;;;;17.56;32.45;95518.31;10509942;27;2753;-45
2023/12/04 04:37:07;;;;;;;;;;;;;;;17.56;32.22;95514.91;10504499;28;2849;-44
2023/12/04 04:42:08;;;;;;;;;;;;;;;17.56;32.59;95520.94;10504131;28;2855;-46
2023/12/04 04:47:08;;;;;;;;;;;;;;;17.55;32.62;95535.09;10500043;28;4578;-44
2023/12/04 04:52:08;;;;;;;;;;;;;;;17.55;33.24;95531.69;10494261;28;2864;-44
2023/12/04 04:57:09;;;;;;;;;;;;;;;17.60;31.86;95522.00;10499886;28;2878;-46
2023/12/04 05:02:09;;;;;;;;;;;;;;;17.58;32.15;95512.81;10501267;28;2824;-47
2023/12/04 05:07:09;;;;;;;;;;;;;;;17.59;32.33;95488.19;10501388;28;2796;-43
2023/12/04 05:12:10;;;;;;;;;;;;;;;17.61;32.41;95480.84;10499569;28;2860;-48
2023/12/04 05:17:10;;;;;;;;;;;;;;;17.66;32.77;95473.78;10505916;28;2841;-45
2023/12/04 05:22:10;;;;;;;;;;;;;;;17.72;31.98;95472.72;10498047;28;2789;-45
2023/12/04 05:27:12;;;;;;;;;;;;;;;17.78;32.35;95471.66;10498888;28;2782;-46
2023/12/04 05:32:12;;;;;;;;;;;;;;;17.84;32.77;95480.34;10535052;27;2868;-50
2023/12/04 05:37:13;;;;;;;;;;;;;;;17.89;32.74;95473.25;10514361;28;2913;-43
2023/12/04 05:42:13;;;;;;;;;;;;;;;17.93;32.25;95455.16;10498285;28;2873;-46
2023/12/04 05:47:14;;;;;;;;;;;;;;;17.97;32.46;95463.31;10498183;28;4605;-48
2023/12/04 05:52:15;;;;;;;;;;;;;;;18.02;32.37;95471.16;10496553;28;2774;-46
2023/12/04 05:57:16;;;;;;;;;;;;;;;18.04;32.30;95469.84;10497520;28;2927;-48
2023/12/04 06:02:16;;;;;;;;;;;;;;;18.07;32.26;95458.03;10489940;28;2778;-43
2023/12/04 06:07:16;;;;;;;;;;;;;;;18.09;32.11;95466.44;10499044;28;2968;-46
2023/12/04 06:12:17;;;;;;;;;;;;;;;18.13;31.92;95451.75;10503116;28;2911;-47
2023/12/04 06:17:17;;;;;;;;;;;;;;;18.16;32.52;95443.31;10497621;28;2948;-45
2023/12/04 06:22:19;;;;;;;;;;;;;;;18.20;32.22;95436.50;10494706;28;2879;-46
2023/12/04 06:27:20;;;;;;;;;;;;;;;18.23;32.79;95433.34;10492231;28;2889;-44
2023/12/04 06:32:21;;;;;;;;;;;;;;;18.29;32.89;95442.78;10492571;28;2850;-47
2023/12/04 06:37:39;;;;;;;;;;;;;;;18.32;33.39;95435.16;10490731;28;2876;-45
2023/12/04 06:42:40;;;;;;;;;;;;;;;18.35;33.42;95428.59;10489645;28;2804;-47
2023/12/04 06:47:41;;;;;;;;;;;;;;;18.40;33.31;95412.84;10497548;28;4807;-47
2023/12/04 06:52:41;;;;;;;;;;;;;;;18.42;33.52;95408.88;10490272;28;2835;-44
2023/12/04 06:57:41;;;;;;;;;;;;;;;18.44;33.32;95411.28;10489846;28;3091;-45
2023/12/04 07:02:42;;;;;;;;;;;;;;;18.46;33.05;95409.97;10501126;28;2945;-48
2023/12/04 07:07:42;;;;;;;;;;;;;;;18.47;33.63;95401.03;10491799;28;2829;-44
2023/12/04 07:12:42;;;;;;;;;;;;;;;18.49;33.00;95406.81;10493048;28;2746;-48
2023/12/04 07:17:42;;;;;;;;;;;;;;;18.51;33.30;95396.81;10497796;28;2890;-49
2023/12/04 07:22:43;;;;;;;;;;;;;;;18.53;33.08;95388.66;10486713;28;3406;-46
2023/12/04 07:27:43;;;;;;;;;;;;;;;18.54;33.14;95385.78;10496151;28;2887;-47
2023/12/04 07:32:43;;;;;;;;;;;;;;;18.59;32.58;95374.47;10493228;28;2869;-47
2023/12/04 07:37:46;;;;;;;;;;;;;;;18.60;32.97;95362.94;10499259;28;2812;-44
2023/12/04 07:42:46;;;;;;;;;;;;;;;18.60;32.82;95353.22;10493880;28;2885;-44
2023/12/04 07:47:46;;;;;;;;;;;;;;;18.62;32.45;95361.59;10491179;28;4608;-48
2023/12/04 07:52:46;;;;;;;;;;;;;;;18.62;33.04;95352.94;10498428;28;2879;-48
2023/12/04 07:57:48;;;;;;;;;;;;;;;18.62;32.21;95348.47;10495794;28;3082;-46
2023/12/04 08:02:48;;;;;;;;;;;;;;;18.60;32.50;95347.19;10496311;28;2884;-45
2023/12/04 08:07:49;;;;;;;;;;;;;;;18.60;32.34;95374.22;10488648;28;2798;-49
2023/12/04 08:12:49;;;;;;;;;;;;;;;18.61;32.02;95374.97;10492792;28;2951;-46
2023/12/04 08:17:49;;;;;;;;;;;;;;;18.62;32.08;95376.56;10491258;28;3022;-45
2023/12/04 08:22:50;;;;;;;;;;;;;;;18.62;31.97;95366.84;10492233;28;2853;-44
2023/12/04 08:27:51;;;;;;;;;;;;;;;18.62;31.80;95355.56;10492611;28;2889;-46
2023/12/04 08:32:51;;;;;;;;;;;;;;;18.62;31.81;95332.72;10492199;28;2808;-46
2023/12/04 08:37:51;;;;;;;;;;;;;;;18.65;32.00;95334.81;10497299;28;2797;-44
2023/12/04 08:42:51;;;;;;;;;;;;;;;18.67;31.37;95347.66;10504113;28;2839;-45
2023/12/04 08:47:52;;;;;;;;;;;;;;;18.66;31.64;95340.84;10504480;28;4706;-50
2023/12/04 08:52:52;;;;;;;;;;;;;;;18.67;31.64;95337.16;10502389;28;2880;-45
2023/12/04 08:57:52;;;;;;;;;;;;;;;18.68;31.36;95341.34;10504015;28;2805;-47
2023/12/04 09:02:53;;;;;;;;;;;;;;;18.70;31.28;95341.88;10500696;28;2837;-46
2023/12/04 09:07:53;;;;;;;;;;;;;;;18.73;31.13;95351.84;10501787;28;2844;-46
2023/12/04 09:12:54;;;;;;;;;;;;;;;18.72;31.18;95337.13;10494177;28;2854;-45
2023/12/04 09:17:54;;;;;;;;;;;;;;;18.75;31.01;95333.19;10494327;28;2977;-49
2023/12/04 09:22:55;;;;;;;;;;;;;;;18.73;30.90;95330.03;10498084;28;2837;-46
2023/12/04 09:27:55;;;;;;;;;;;;;;;18.76;30.89;95326.88;10497199;28;2884;-48
2023/12/04 09:32:55;;;;;;;;;;;;;;;18.78;30.85;95341.28;10505101;28;2829;-47
2023/12/04 09:37:56;;;;;;;;;;;;;;;18.79;30.96;95339.47;10496764;28;2869;-48
2023/12/04 09:42:57;;;;;;;;;;;;;;;18.78;30.71;95337.88;10498487;28;2903;-48
2023/12/04 09:47:57;;;;;;;;;;;;;;;18.78;31.06;95343.91;10494649;28;4959;-44
2023/12/04 09:52:58;;;;;;;;;;;;;;;18.79;30.59;95337.63;10527312;27;2925;-47
2023/12/04 09:57:58;;;;;;;;;;;;;;;18.80;30.55;95338.38;10507901;28;2982;-47
2023/12/04 10:02:59;;;;;;;;;;;;;;;18.79;30.79;95314.00;10503069;28;2803;-47
2023/12/04 10:07:59;;;;;;;;;;;;;;;18.83;30.26;95298.47;10495330;28;2906;-49
2023/12/04 10:13:00;;;;;;;;;;;;;;;18.84;30.55;95300.03;10499881;28;3291;-46
2023/12/04 10:18:00;;;;;;;;;;;;;;;18.86;30.05;95296.06;10497303;28;2871;-45
2023/12/04 10:23:03;;;;;;;;;;;;;;;18.86;30.44;95282.94;10488084;28;2892;-47
2023/12/04 10:28:07;;;;;;;;;;;;;;;18.85;30.53;95263.00;10496030;28;2888;-46
2023/12/04 10:33:07;;;;;;;;;;;;;;;18.85;30.26;95244.63;10490774;28;2840;-47
2023/12/04 10:38:08;;;;;;;;;;;;;;;18.87;30.31;95246.97;10496958;28;2834;-48
2023/12/04 10:43:08;;;;;;;;;;;;;;;18.88;30.23;95253.78;10492827;28;4609;-50
2023/12/04 10:48:09;;;;;;;;;;;;;;;18.88;30.43;95249.31;10489555;28;2884;-46
2023/12/04 10:53:10;;;;;;;;;;;;;;;18.90;30.33;95251.69;10491799;28;2891;-45
2023/12/04 10:58:10;;;;;;;;;;;;;;;18.91;30.11;95232.22;10493432;28;2861;-46
2023/12/04 11:03:30;;;;;;;;;;;;;;;18.95;30.28;95241.13;10498797;28;2925;-48
2023/12/04 11:08:31;;;;;;;;;;;;;;;18.91;30.30;95222.53;10495273;28;2920;-44
2023/12/04 11:13:32;;;;;;;;;;;;;;;18.89;30.31;95203.63;10529783;27;2856;-48
2023/12/04 11:18:34;;;;;;;;;;;;;;;18.88;30.33;95202.06;10498908;28;2785;-45
2023/12/04 11:23:35;;;;;;;;;;;;;;;18.90;30.59;95192.06;10490295;28;2851;-49
2023/12/04 11:28:36;;;;;;;;;;;;;;;18.91;30.98;95163.94;10486568;28;3027;-45
2023/12/04 11:33:36;;;;;;;;;;;;;;;18.96;31.45;95166.53;10492751;28;2790;-47
2023/12/04 11:38:37;;;;;;;;;;;;;;;18.96;32.11;95166.53;10492602;28;2921;-46
2023/12/04 11:43:38;;;;;;;;;;;;;;;18.97;31.87;95163.63;10500073;28;4717;-48
2023/12/04 11:48:38;;;;;;;;;;;;;;;19.02;32.58;95139.94;10521123;28;2907;-45
2023/12/04 11:53:39;;;;;;;;;;;;;;;19.03;31.90;95151.22;10496319;28;2777;-49
2023/12/04 11:58:43;;;;;;;;;;;;;;;19.08;32.55;95157.22;10492633;28;2893;-44
2023/12/04 12:03:43;;;;;;;;;;;;;;;19.12;32.38;95166.13;10493758;28;2890;-46
2023/12/04 12:08:44;;;;;;;;;;;;;;;19.13;31.97;95165.06;10490997;28;2860;-44
2023/12/04 12:13:44;;;;;;;;;;;;;;;19.12;31.83;95160.88;10490444;28;2858;-49
2023/12/04 12:18:44;;;;;;;;;;;;;;;19.12;31.59;95147.75;10499627;28;2888;-49
2023/12/04 12:23:44;;;;;;;;;;;;;;;19.12;31.49;95145.09;10500826;28;2875;-45
2023/12/04 12:28:45;;;;;;;;;;;;;;;19.13;31.39;95146.66;10502011;28;2802;-46
2023/12/04 12:33:45;;;;;;;;;;;;;;;19.11;31.33;95143.53;10506190;28;2953;-51
2023/12/04 12:38:49;;;;;;;;;;;;;;;19.12;31.24;95137.22;10499738;28;2883;-46
2023/12/04 12:43:53;;;;;;;;;;;;;;;19.12;31.38;95134.59;10496388;28;2880;-45
2023/12/04 12:48:53;;;;;;;;;;;;;;;19.14;31.38;95152.72;10500659;28;2857;-45
2023/12/04 12:53:53;;;;;;;;;;;;;;;19.16;31.50;95154.00;10496524;28;2852;-45
2023/12/04 12:58:54;;;;;;;;;;;;;;;19.14;31.07;95150.06;10490966;28;2894;-45
2023/12/04 13:03:56;;;;;;;;;;;;;;;19.14;31.09;95123.81;10501756;28;2933;-51
2023/12/04 13:08:56;;;;;;;;;;;;;;;19.14;31.13;95110.66;10494457;28;2846;-45
2023/12/04 13:13:57;;;;;;;;;;;;;;;19.13;31.08;95115.13;10495987;28;2836;-45
2023/12/04 13:18:57;;;;;;;;;;;;;;;19.16;31.04;95096.19;10493914;28;2822;-47
2023/12/04 13:23:58;;;;;;;;;;;;;;;19.16;30.62;95080.44;10501069;28;2785;-48
2023/12/04 13:28:58;;;;;;;;;;;;;;;19.17;30.76;95058.34;10499387;28;2780;-45
2023/12/04 13:33:59;;;;;;;;;;;;;;;19.15;30.69;95049.97;10503655;28;2793;-49
2023/12/04 13:38:59;;;;;;;;;;;;;;;19.18;30.65;95049.41;10500437;28;2926;-46
2023/12/04 13:44:02;;;;;;;;;;;;;;;19.14;30.78;95027.41;10504539;28;4711;-46
2023/12/04 13:49:03;;;;;;;;;;;;;;;19.16;30.10;95022.66;10497191;28;2843;-48
2023/12/04 13:54:15;;;;;;;;;;;;;;;19.16;30.43;95014.75;10494315;28;2802;-49
2023/12/04 13:59:20;;;;;;;;;;;;;;;19.17;30.80;95034.69;10501513;28;2825;-46
2023/12/04 14:04:20;;;;;;;;;;;;;;;19.18;30.38;95028.41;10497237;28;2932;-45
2023/12/04 14:09:20;;;;;;;;;;;;;;;19.18;30.38;95024.97;10495851;28;2872;-48
2023/12/04 14:14:21;;;;;;;;;;;;;;;19.18;30.31;95025.75;10499081;28;2967;-48
2023/12/04 14:19:21;;;;;;;;;;;;;;;19.20;30.27;95031.53;10490876;28;2793;-48
2023/12/04 14:24:21;;;;;;;;;;;;;;;19.19;30.43;95035.19;10488596;28;2877;-47
2023/12/04 14:29:22;;;;;;;;;;;;;;;19.20;30.17;95021.00;10494294;28;2833;-44
2023/12/04 14:34:22;;;;;;;;;;;;;;;19.18;30.13;95023.16;10488645;28;2914;-46
2023/12/04 14:39:23;;;;;;;;;;;;;;;19.19;30.24;95008.94;10491540;28;2912;-48
2023/12/04 14:44:23;;;;;;;;;;;;;;;19.18;30.68;95011.84;10499158;28;4692;-50
2023/12/04 14:49:23;;;;;;;;;;;;;;;19.19;30.03;95022.06;10498442;28;2892;-45
2023/12/04 14:54:37;;;;;;;;;;;;;;;19.19;30.18;95040.44;10486604;28;3020;-48
2023/12/04 15:15:40;;;;;;;;;;;;;;;19.15;30.33;95013.19;10497273;28;2826;-46
2023/12/04 15:20:40;;;;;;;;;;;;;;;19.21;29.91;95003.38;10497856;28;2879;-46
2023/12/04 15:25:41;;;;;;;;;;;;;;;19.22;30.08;94997.88;10492595;28;2913;-45
2023/12/04 15:30:44;;;;;;;;;;;;;;;19.23;29.87;94999.41;10498614;28;2924;-45
2023/12/04 15:35:45;;;;;;;;;;;;;;;19.23;30.18;94983.66;10484407;28;2851;-46
2023/12/04 15:40:45;;;;;;;;;;;;;;;19.24;30.15;94979.19;10494426;28;2828;-47
2023/12/04 15:45:45;;;;;;;;;;;;;;;19.21;29.89;94985.78;10499039;28;4348;-49
2023/12/04 15:50:45;;;;;;;;;;;;;;;19.26;29.64;94985.72;10496403;28;2857;-46
2023/12/04 15:55:46;;;;;;;;;;;;;;;19.24;29.76;95002.84;10495653;28;2813;-48
2023/12/04 16:00:47;;;;;;;;;;;;;;;19.24;29.37;94987.84;10495411;28;2902;-50
2023/12/04 16:05:47;;;;;;;;;;;;;;;19.28;30.02;94965.19;10500605;28;2860;-46
2023/12/04 16:10:48;;;;;;;;;;;;;;;19.27;30.01;94963.63;10500607;28;2829;-46
2023/12/04 16:15:48;;;;;;;;;;;;;;;19.29;29.90;94950.97;10495439;28;2846;-46
2023/12/04 16:20:49;;;;;;;;;;;;;;;19.28;29.81;94965.19;10493237;28;2805;-46
2023/12/04 16:25:49;;;;;;;;;;;;;;;19.30;29.76;94952.56;10503673;28;2857;-51
2023/12/04 16:30:50;;;;;;;;;;;;;;;19.32;29.46;94950.44;10495284;28;2901;-47
2023/12/04 16:35:50;;;;;;;;;;;;;;;19.30;30.00;94930.75;10498248;28;2789;-47
2023/12/04 16:40:50;;;;;;;;;;;;;;;19.35;29.94;94942.00;10502929;28;2797;-46
2023/12/04 16:45:50;;;;;;;;;;;;;;;19.38;30.59;94938.81;10498439;28;4664;-49
2023/12/04 16:50:51;;;;;;;;;;;;;;;19.41;30.68;94932.22;10500973;28;2959;-48
2023/12/04 17:07:07;;;;;;;;;;;;;;;19.41;31.33;94906.69;10492598;28;2785;-45
2023/12/04 17:12:07;;;;;;;;;;;;;;;19.47;31.20;94913.44;10531241;27;2795;-49
2023/12/04 17:17:07;;;;;;;;;;;;;;;19.49;30.90;94905.28;10502625;28;2892;-48
2023/12/04 17:22:07;;;;;;;;;;;;;;;19.51;30.79;94911.03;10496629;28;2879;-50
2023/12/04 17:27:08;;;;;;;;;;;;;;;19.53;30.95;94893.13;10492086;28;2948;-48
2023/12/04 17:32:09;;;;;;;;;;;;;;;19.58;30.76;94879.88;10494982;28;2908;-47
2023/12/04 17:37:10;;;;;;;;;;;;;;;19.62;30.56;94864.34;10493641;28;2863;-50
2023/12/04 17:42:10;;;;;;;;;;;;;;;19.67;30.53;94878.16;10512412;28;2870;-49
2023/12/04 17:47:11;;;;;;;;;;;;;;;19.70;30.45;94879.44;10501806;28;2824;-47
2023/12/04 17:52:12;;;;;;;;;;;;;;;19.72;30.19;94867.53;10495954;28;2888;-47
2023/12/04 17:57:12;;;;;;;;;;;;;;;19.75;30.90;94866.19;10505055;28;2942;-44
2023/12/04 18:02:13;;;;;;;;;;;;;;;19.80;30.77;94853.75;10493650;28;3316;-47
2023/12/04 18:07:15;;;;;;;;;;;;;;;19.86;30.21;94851.81;10501668;28;2999;-51
2023/12/04 18:12:16;;;;;;;;;;;;;;;19.87;30.88;94850.72;10499788;28;2816;-48
2023/12/04 18:17:16;;;;;;;;;;;;;;;19.83;30.48;94862.91;10492991;28;2895;-47
2023/12/04 18:22:16;;;;;;;;;;;;;;;19.82;29.56;94858.72;10498738;28;2920;-48
2023/12/04 18:27:16;;;;;;;;;;;;;;;19.79;29.05;94843.50;10497361;28;2856;-50
2023/12/04 18:32:17;;;;;;;;;;;;;;;19.83;29.87;94845.28;10502429;28;2890;-50
2023/12/04 18:37:21;;;;;;;;;;;;;;;19.78;29.41;94853.28;10495119;28;2859;-46
2023/12/04 18:42:21;;;;;;;;;;;;;;;19.75;29.58;94847.78;10485737;28;2795;-44
2023/12/04 18:47:21;;;;;;;;;;;;;;;19.68;30.10;94842.91;10502841;28;4668;-49
2023/12/04 18:52:22;;;;;;;;;;;;;;;19.67;29.00;94840.56;10502710;28;2778;-46
2023/12/04 18:57:22;;;;;;;;;;;;;;;19.61;30.09;94847.78;10504355;28;2841;-46
2023/12/04 19:02:23;;;;;;;;;;;;;;;19.60;29.49;94855.97;10502657;28;2816;-47
2023/12/04 19:07:23;;;;;;;;;;;;;;;19.53;29.44;94840.56;10498970;28;3027;-47
2023/12/04 19:12:23;;;;;;;;;;;;;;;19.52;29.63;94844.22;10495327;28;2844;-48
2023/12/04 19:17:24;;;;;;;;;;;;;;;19.49;29.79;94836.94;10502211;28;2991;-49
2023/12/04 19:22:24;;;;;;;;;;;;;;;19.44;29.78;94837.78;10499208;28;2887;-47
2023/12/04 19:27:24;;;;;;;;;;;;;;;19.46;30.16;94832.25;10512050;28;2856;-49
2023/12/04 19:32:24;;;;;;;;;;;;;;;19.45;30.15;94822.81;10509585;28;2251;-46
2023/12/04 19:37:25;;;;;;;;;;;;;;;19.48;30.53;94823.00;10512520;28;1382;-47
2023/12/04 19:42:27;;;;;;;;;;;;;;;19.48;30.73;94815.13;10506341;28;2232;-44
2023/12/04 19:47:27;;;;;;;;;;;;;;;19.47;30.95;94825.94;10516267;28;4605;-47
2023/12/04 19:52:27;;;;;;;;;;;;;;;19.52;31.07;94817.16;10512417;28;1551;-51
2023/12/04 19:57:28;;;;;;;;;;;;;;;19.58;31.27;94810.78;10515480;28;2842;-49
2023/12/04 20:02:28;;;;;;;;;;;;;;;19.64;31.73;94814.88;10514630;28;2019;-44
2023/12/04 20:07:30;;;;;;;;;;;;;;;19.71;30.67;94810.78;10515414;28;1961;-46
2023/12/04 20:12:31;;;;;;;;;;;;;;;19.74;30.55;94806.81;10515503;28;1477;-45
2023/12/04 20:17:31;;;;;;;;;;;;;;;19.77;30.95;94804.38;10511314;28;1557;-45
2023/12/04 20:22:32;;;;;;;;;;;;;;;19.78;30.70;94799.91;10504307;28;1625;-48
2023/12/04 20:27:32;;;;;;;;;;;;;;;19.83;30.79;94797.94;10509235;28;1977;-46
2023/12/04 20:32:32;;;;;;;;;;;;;;;19.83;30.36;94795.31;10507326;28;1504;-46
2023/12/04 20:37:32;;;;;;;;;;;;;;;19.86;29.79;94796.59;10510557;28;1507;-50
2023/12/04 20:42:33;;;;;;;;;;;;;;;19.90;29.46;94784.41;10524985;28;1525;-49
2023/12/04 20:47:33;;;;;;;;;;;;;;;19.90;30.10;94782.56;10525048;28;4668;-46
2023/12/04 20:52:33;;;;;;;;;;;;;;;19.91;29.97;94768.34;10515155;28;2328;-45
2023/12/04 20:57:34;;;;;;;;;;;;;;;19.94;29.62;94773.03;10532920;28;1803;-52
2023/12/04 21:02:34;;;;;;;;;;;;;;;19.95;30.07;94769.31;10531800;28;1479;-50
2023/12/04 21:07:35;;;;;;;;;;;;;;;19.97;29.17;94753.25;10535277;28;1949;-46
2023/12/04 21:12:35;;;;;;;;;;;;;;;19.96;30.16;94756.94;10524928;28;1426;-50
2023/12/04 21:17:36;;;;;;;;;;;;;;;19.95;29.96;94750.09;10530953;28;1489;-48
2023/12/04 21:22:36;;;;;;;;;;;;;;;19.99;28.86;94754.50;10516865;28;1775;-49
2023/12/04 21:27:37;;;;;;;;;;;;;;;19.97;29.35;94743.50;10527843;28;1905;-51
2023/12/04 21:32:37;;;;;;;;;;;;;;;19.96;29.34;94747.19;10530268;28;1497;-48
2023/12/04 21:37:37;;;;;;;;;;;;;;;20.00;29.59;94742.13;10526758;28;1606;-48
2023/12/04 21:42:38;;;;;;;;;;;;;;;20.01;29.17;94736.56;10526536;28;1388;-50
2023/12/04 21:47:38;;;;;;;;;;;;;;;20.00;29.19;94726.34;10520836;28;1972;-49
2023/12/04 21:52:38;;;;;;;;;;;;;;;19.97;29.78;94719.06;10522169;28;1504;-48
2023/12/04 21:57:39;;;;;;;;;;;;;;;20.01;29.60;94712.13;10518669;28;1448;-50
2023/12/04 22:02:39;;;;;;;;;;;;;;;20.00;29.76;94707.94;10534695;28;1457;-50
2023/12/04 22:07:39;;;;;;;;;;;;;;;19.99;30.16;94701.13;10518517;28;1969;-50
2023/12/04 22:12:39;;;;;;;;;;;;;;;19.99;30.26;94701.13;10522214;28;1479;-48
2023/12/04 22:17:40;;;;;;;;;;;;;;;20.02;29.91;94703.16;10524284;28;1543;-46
2023/12/04 22:22:40;;;;;;;;;;;;;;;20.01;30.05;94699.75;10525524;28;1580;-49
2023/12/04 22:27:41;;;;;;;;;;;;;;;20.03;29.78;94694.97;10522477;28;1902;-49
2023/12/04 22:32:41;;;;;;;;;;;;;;;20.03;29.50;94694.19;10504050;28;2882;-46
2023/12/04 22:37:42;;;;;;;;;;;;;;;19.93;29.24;94687.28;10498468;28;2900;-46
2023/12/04 22:42:42;;;;;;;;;;;;;;;19.88;29.74;94681.34;10497095;28;2922;-46
2023/12/04 22:47:43;;;;;;;;;;;;;;;19.84;29.88;94668.03;10508417;28;4614;-48
2023/12/04 22:52:43;;;;;;;;;;;;;;;19.75;30.15;94672.41;10502464;28;2867;-47
2023/12/04 22:57:43;;;;;;;;;;;;;;;19.70;30.24;94666.47;10508347;28;2773;-46
2023/12/04 23:02:44;;;;;;;;;;;;;;;19.69;30.18;94663.06;10498951;28;2876;-47
2023/12/04 23:07:44;;;;;;;;;;;;;;;19.65;30.44;94656.06;10497481;28;3095;-47
2023/12/04 23:12:47;;;;;;;;;;;;;;;19.59;30.29;94649.34;10495962;28;2838;-46
2023/12/04 23:17:47;;;;;;;;;;;;;;;19.54;30.29;94642.31;10505288;28;2870;-45
2023/12/04 23:22:47;;;;;;;;;;;;;;;19.51;30.14;94657.91;10500830;28;2864;-46
2023/12/04 23:27:47;;;;;;;;;;;;;;;19.48;30.25;94660.06;10501619;28;2863;-45
2023/12/04 23:32:48;;;;;;;;;;;;;;;19.48;30.06;94652.16;10495362;28;2977;-51
2023/12/04 23:37:48;;;;;;;;;;;;;;;19.48;29.85;94648.75;10491832;28;2840;-50
2023/12/04 23:42:48;;;;;;;;;;;;;;;19.45;29.95;94644.84;10489867;28;2867;-47
2023/12/04 23:47:49;;;;;;;;;;;;;;;19.43;29.72;94644.38;10496812;28;4652;-47
2023/12/04 23:52:49;;;;;;;;;;;;;;;19.44;29.45;94643.31;10491208;28;2833;-49
2023/12/04 23:57:49;;;;;;;;;;;;;;;19.41;29.96;94636.00;10493436;28;2846;-49
